sensor_id;sensor_type;location;lat;lon;timestamp;pressure;altitude;pressure_sealevel;temperature;humidity
4346;BME280;2186;49.866;7.986;2024-02-04T00:02:03;101253.59;;;11.68;92.63
4346;BME280;2186;49.866;7.986;2024-02-04T00:04:30;101242.97;;;11.65;92.27
4346;BME280;2186;49.866;7.986;2024-02-04T00:06:59;101247.56;;;11.56;92.81
4346;BME280;2186;49.866;7.986;2024-02-04T00:09:25;101242.97;;;11.66;92.66
4346;BME280;2186;49.866;7.986;2024-02-04T00:11:54;101235.78;;;11.70;92.54
4346;BME280;2186;49.866;7.986;2024-02-04T00:14:21;101241.09;;;11.70;92.18
4346;BME280;2186;49.866;7.986;2024-02-04T00:16:47;101243.91;;;11.62;92.96
4346;BME280;2186;49.866;7.986;2024-02-04T00:19:14;101236.88;;;11.58;93.57
4346;BME280;2186;49.866;7.986;2024-02-04T00:21:41;101247.63;;;11.50;94.24
4346;BME280;2186;49.866;7.986;2024-02-04T00:24:07;101234.50;;;11.41;94.47
4346;BME280;2186;49.866;7.986;2024-02-04T00:26:33;101230.09;;;11.40;94.50
4346;BME280;2186;49.866;7.986;2024-02-04T00:29:00;101234.59;;;11.35;94.88
4346;BME280;2186;49.866;7.986;2024-02-04T00:31:26;101221.28;;;11.35;94.05
4346;BME280;2186;49.866;7.986;2024-02-04T00:33:53;101216.06;;;11.29;94.75
4346;BME280;2186;49.866;7.986;2024-02-04T00:36:19;101205.13;;;11.46;94.71
4346;BME280;2186;49.866;7.986;2024-02-04T00:38:47;101221.13;;;11.44;94.32
4346;BME280;2186;49.866;7.986;2024-02-04T00:41:14;101216.56;;;11.51;94.05
4346;BME280;2186;49.866;7.986;2024-02-04T00:43:41;101220.97;;;11.55;93.44
4346;BME280;2186;49.866;7.986;2024-02-04T00:46:07;101213.91;;;11.52;93.90
4346;BME280;2186;49.866;7.986;2024-02-04T00:48:37;101211.22;;;11.54;93.67
4346;BME280;2186;49.866;7.986;2024-02-04T00:51:04;101214.84;;;11.48;94.25
4346;BME280;2186;49.866;7.986;2024-02-04T00:53:30;101214.78;;;11.53;94.04
4346;BME280;2186;49.866;7.986;2024-02-04T00:56:03;101205.03;;;11.52;94.38
4346;BME280;2186;49.866;7.986;2024-02-04T00:58:30;101207.72;;;11.52;93.60
4346;BME280;2186;49.866;7.986;2024-02-04T01:00:57;101203.34;;;11.46;94.04
4346;BME280;2186;49.866;7.986;2024-02-04T01:03:24;101209.53;;;11.48;94.19
4346;BME280;2186;49.866;7.986;2024-02-04T01:05:50;101214.88;;;11.47;93.96
4346;BME280;2186;49.866;7.986;2024-02-04T01:08:17;101208.63;;;11.49;93.73
4346;BME280;2186;49.866;7.986;2024-02-04T01:10:44;101214.69;;;11.57;93.82
4346;BME280;2186;49.866;7.986;2024-02-04T01:13:10;101214.94;;;11.44;93.85
4346;BME280;2186;49.866;7.986;2024-02-04T01:15:36;101219.28;;;11.48;93.93
4346;BME280;2186;49.866;7.986;2024-02-04T01:18:03;101219.44;;;11.40;94.36
4346;BME280;2186;49.866;7.986;2024-02-04T01:20:30;101220.38;;;11.36;94.74
4346;BME280;2186;49.866;7.986;2024-02-04T01:22:56;101225.88;;;11.27;95.68
4346;BME280;2186;49.866;7.986;2024-02-04T01:25:23;101226.59;;;11.35;94.84
4346;BME280;2186;49.866;7.986;2024-02-04T01:27:49;101212.38;;;11.36;95.37
4346;BME280;2186;49.866;7.986;2024-02-04T01:30:16;101221.97;;;11.46;94.39
4346;BME280;2186;49.866;7.986;2024-02-04T01:32:42;101208.81;;;11.37;94.89
4346;BME280;2186;49.866;7.986;2024-02-04T01:35:09;101219.38;;;11.43;95.12
4346;BME280;2186;49.866;7.986;2024-02-04T01:37:35;101223.75;;;11.47;94.76
4346;BME280;2186;49.866;7.986;2024-02-04T01:40:01;101215.97;;;11.35;94.81
4346;BME280;2186;49.866;7.986;2024-02-04T01:42:28;101217.56;;;11.45;94.92
4346;BME280;2186;49.866;7.986;2024-02-04T01:44:55;101217.84;;;11.28;95.32
4346;BME280;2186;49.866;7.986;2024-02-04T01:47:22;101211.72;;;11.23;96.16
4346;BME280;2186;49.866;7.986;2024-02-04T01:49:49;101221.41;;;11.29;96.22
4346;BME280;2186;49.866;7.986;2024-02-04T01:52:16;101217.84;;;11.30;96.50
4346;BME280;2186;49.866;7.986;2024-02-04T01:54:43;101225.78;;;11.32;95.54
4346;BME280;2186;49.866;7.986;2024-02-04T01:57:12;101233.72;;;11.35;95.85
4346;BME280;2186;49.866;7.986;2024-02-04T01:59:39;101239.06;;;11.33;95.94
4346;BME280;2186;49.866;7.986;2024-02-04T02:02:06;101241.00;;;11.25;96.31
4346;BME280;2186;49.866;7.986;2024-02-04T02:04:32;101235.53;;;11.33;96.50
4346;BME280;2186;49.866;7.986;2024-02-04T02:06:59;101234.84;;;11.20;96.24
4346;BME280;2186;49.866;7.986;2024-02-04T02:09:27;101227.78;;;11.17;97.13
4346;BME280;2186;49.866;7.986;2024-02-04T02:12:08;101216.38;;;11.11;97.24
4346;BME280;2186;49.866;7.986;2024-02-04T02:14:41;101209.06;;;11.25;97.08
4346;BME280;2186;49.866;7.986;2024-02-04T02:17:11;101204.63;;;11.24;97.43
4346;BME280;2186;49.866;7.986;2024-02-04T02:19:52;101205.75;;;11.11;97.12
4346;BME280;2186;49.866;7.986;2024-02-04T02:22:36;101204.63;;;11.24;97.35
4346;BME280;2186;49.866;7.986;2024-02-04T02:25:06;101217.09;;;11.20;97.11
4346;BME280;2186;49.866;7.986;2024-02-04T02:27:34;101206.53;;;11.16;97.43
4346;BME280;2186;49.866;7.986;2024-02-04T02:30:00;101204.53;;;11.30;97.57
4346;BME280;2186;49.866;7.986;2024-02-04T02:32:27;101197.53;;;11.24;97.74
4346;BME280;2186;49.866;7.986;2024-02-04T02:34:53;101201.97;;;11.24;98.14
4346;BME280;2186;49.866;7.986;2024-02-04T02:39:59;101204.94;;;11.04;100.00
4346;BME280;2186;49.866;7.986;2024-02-04T02:42:28;101200.56;;;11.02;100.00
4346;BME280;2186;49.866;7.986;2024-02-04T02:44:56;101191.41;;;11.18;100.00
4346;BME280;2186;49.866;7.986;2024-02-04T02:47:23;101200.56;;;11.02;100.00
4346;BME280;2186;49.866;7.986;2024-02-04T02:49:51;101194.44;;;10.95;100.00
4346;BME280;2186;49.866;7.986;2024-02-04T02:52:21;101200.56;;;11.02;100.00
4346;BME280;2186;49.866;7.986;2024-02-04T02:54:48;101191.59;;;11.07;100.00
4346;BME280;2186;49.866;7.986;2024-02-04T02:57:14;101187.91;;;11.16;100.00
4346;BME280;2186;49.866;7.986;2024-02-04T02:59:41;101177.31;;;11.13;99.98
4346;BME280;2186;49.866;7.986;2024-02-04T03:02:07;101179.00;;;11.18;100.00
4346;BME280;2186;49.866;7.986;2024-02-04T03:04:33;101169.25;;;11.17;99.80
4346;BME280;2186;49.866;7.986;2024-02-04T03:07:00;101163.28;;;11.03;100.00
4346;BME280;2186;49.866;7.986;2024-02-04T03:09:27;101155.94;;;11.17;99.98
4346;BME280;2186;49.866;7.986;2024-02-04T03:11:53;101160.63;;;11.03;99.69
4346;BME280;2186;49.866;7.986;2024-02-04T03:14:20;101160.56;;;11.06;99.56
4346;BME280;2186;49.866;7.986;2024-02-04T03:16:46;101162.28;;;11.10;99.88
4346;BME280;2186;49.866;7.986;2024-02-04T03:19:13;101160.53;;;11.08;99.91
4346;BME280;2186;49.866;7.986;2024-02-04T03:21:39;101165.81;;;11.09;99.73
4346;BME280;2186;49.866;7.986;2024-02-04T03:24:06;101158.84;;;11.04;100.00
4346;BME280;2186;49.866;7.986;2024-02-04T03:26:32;101156.28;;;10.96;100.00
4346;BME280;2186;49.866;7.986;2024-02-04T03:28:59;101165.91;;;11.05;99.59
4346;BME280;2186;49.866;7.986;2024-02-04T03:31:25;101164.03;;;11.10;99.54
4346;BME280;2186;49.866;7.986;2024-02-04T03:33:52;101160.50;;;11.09;99.56
4346;BME280;2186;49.866;7.986;2024-02-04T03:36:21;101166.56;;;11.19;99.52
4346;BME280;2186;49.866;7.986;2024-02-04T03:38:52;101157.91;;;11.06;98.92
4346;BME280;2186;49.866;7.986;2024-02-04T03:41:18;101161.56;;;11.01;99.38
4346;BME280;2186;49.866;7.986;2024-02-04T03:43:45;101158.84;;;11.04;99.81
4346;BME280;2186;49.866;7.986;2024-02-04T03:46:13;101158.88;;;11.02;99.80
4346;BME280;2186;49.866;7.986;2024-02-04T03:48:40;101151.84;;;10.98;99.50
4346;BME280;2186;49.866;7.986;2024-02-04T03:51:07;101151.75;;;11.03;100.00
4346;BME280;2186;49.866;7.986;2024-02-04T03:53:34;101161.63;;;10.97;99.94
4346;BME280;2186;49.866;7.986;2024-02-04T03:56:00;101160.78;;;10.92;99.90
4346;BME280;2186;49.866;7.986;2024-02-04T03:58:27;101154.34;;;11.07;99.84
4346;BME280;2186;49.866;7.986;2024-02-04T04:00:56;101158.03;;;11.00;99.98
4346;BME280;2186;49.866;7.986;2024-02-04T04:03:23;101162.50;;;10.95;99.50
4346;BME280;2186;49.866;7.986;2024-02-04T04:05:50;101172.47;;;10.84;100.00
4346;BME280;2186;49.866;7.986;2024-02-04T04:08:17;101162.69;;;10.86;100.00
4346;BME280;2186;49.866;7.986;2024-02-04T04:10:45;101156.41;;;10.90;100.00
4346;BME280;2186;49.866;7.986;2024-02-04T04:13:12;101152.81;;;10.92;100.00
4346;BME280;2186;49.866;7.986;2024-02-04T04:15:39;101163.59;;;10.85;99.54
4346;BME280;2186;49.866;7.986;2024-02-04T04:18:06;101158.22;;;10.88;99.73
4346;BME280;2186;49.866;7.986;2024-02-04T04:20:32;101169.56;;;10.99;99.80
4346;BME280;2186;49.866;7.986;2024-02-04T04:22:59;101159.84;;;10.98;99.39
4346;BME280;2186;49.866;7.986;2024-02-04T04:25:25;101167.16;;;10.82;100.00
4346;BME280;2186;49.866;7.986;2024-02-04T04:27:52;101167.88;;;10.93;100.00
4346;BME280;2186;49.866;7.986;2024-02-04T04:30:18;101173.16;;;10.96;99.72
4346;BME280;2186;49.866;7.986;2024-02-04T04:32:44;101166.09;;;10.94;99.64
4346;BME280;2186;49.866;7.986;2024-02-04T04:35:11;101168.94;;;10.83;99.83
4346;BME280;2186;49.866;7.986;2024-02-04T04:37:38;101163.56;;;10.86;100.00
4346;BME280;2186;49.866;7.986;2024-02-04T04:40:05;101168.72;;;10.97;99.94
4346;BME280;2186;49.866;7.986;2024-02-04T04:42:32;101167.00;;;10.91;99.91
4346;BME280;2186;49.866;7.986;2024-02-04T04:44:58;101175.94;;;10.89;100.00
4346;BME280;2186;49.866;7.986;2024-02-04T04:47:25;101167.63;;;11.09;99.59
4346;BME280;2186;49.866;7.986;2024-02-04T04:49:51;101173.16;;;10.96;99.80
4346;BME280;2186;49.866;7.986;2024-02-04T04:52:18;101172.25;;;10.97;99.68
4346;BME280;2186;49.866;7.986;2024-02-04T04:54:44;101171.41;;;10.94;99.90
4346;BME280;2186;49.866;7.986;2024-02-04T04:57:11;101166.09;;;10.94;99.78
4346;BME280;2186;49.866;7.986;2024-02-04T04:59:37;101154.56;;;10.93;99.68
4346;BME280;2186;49.866;7.986;2024-02-04T05:02:04;101145.84;;;10.85;100.00
4346;BME280;2186;49.866;7.986;2024-02-04T05:04:31;101143.06;;;10.91;100.00
4346;BME280;2186;49.866;7.986;2024-02-04T05:06:57;101160.69;;;11.00;99.92
4346;BME280;2186;49.866;7.986;2024-02-04T05:09:24;101165.88;;;11.06;99.56
4346;BME280;2186;49.866;7.986;2024-02-04T05:11:50;101168.63;;;11.02;99.36
4346;BME280;2186;49.866;7.986;2024-02-04T05:14:17;101170.44;;;11.00;99.57
4346;BME280;2186;49.866;7.986;2024-02-04T05:16:43;101175.72;;;11.03;99.96
4346;BME280;2186;49.866;7.986;2024-02-04T05:19:12;101165.84;;;11.08;99.31
4346;BME280;2186;49.866;7.986;2024-02-04T05:21:39;101170.28;;;11.10;99.37
4346;BME280;2186;49.866;7.986;2024-02-04T05:24:06;101172.03;;;11.10;99.59
4346;BME280;2186;49.866;7.986;2024-02-04T05:26:33;101164.09;;;11.07;99.21
4346;BME280;2186;49.866;7.986;2024-02-04T05:28:59;101167.50;;;11.16;99.27
4346;BME280;2186;49.866;7.986;2024-02-04T05:31:26;101164.91;;;11.13;98.99
4346;BME280;2186;49.866;7.986;2024-02-04T05:33:52;101170.28;;;11.10;99.51
4346;BME280;2186;49.866;7.986;2024-02-04T05:36:19;101173.16;;;10.96;99.35
4346;BME280;2186;49.866;7.986;2024-02-04T05:38:46;101174.84;;;11.01;99.79
4346;BME280;2186;49.866;7.986;2024-02-04T05:41:12;101176.59;;;11.03;99.86
4346;BME280;2186;49.866;7.986;2024-02-04T05:43:39;101179.06;;;11.14;99.07
4346;BME280;2186;49.866;7.986;2024-02-04T05:46:05;101174.78;;;11.05;99.27
4346;BME280;2186;49.866;7.986;2024-02-04T05:48:32;101183.56;;;11.09;99.21
4346;BME280;2186;49.866;7.986;2024-02-04T05:50:59;101181.81;;;11.08;99.69
4346;BME280;2186;49.866;7.986;2024-02-04T05:53:26;101183.69;;;11.03;99.81
4346;BME280;2186;49.866;7.986;2024-02-04T05:55:53;101181.88;;;11.05;99.43
4346;BME280;2186;49.866;7.986;2024-02-04T05:58:19;101175.66;;;11.06;99.05
4346;BME280;2186;49.866;7.986;2024-02-04T06:00:45;101176.59;;;11.03;99.36
4346;BME280;2186;49.866;7.986;2024-02-04T06:03:12;101180.91;;;11.09;99.42
4346;BME280;2186;49.866;7.986;2024-02-04T06:05:39;101171.28;;;11.02;99.51
4346;BME280;2186;49.866;7.986;2024-02-04T06:08:05;101173.00;;;11.06;99.80
4346;BME280;2186;49.866;7.986;2024-02-04T06:10:32;101181.91;;;11.03;99.94
4346;BME280;2186;49.866;7.986;2024-02-04T06:12:58;101177.31;;;11.13;99.45
4346;BME280;2186;49.866;7.986;2024-02-04T06:15:25;101171.25;;;11.05;99.89
4346;BME280;2186;49.866;7.986;2024-02-04T06:17:51;101168.91;;;10.85;100.00
4346;BME280;2186;49.866;7.986;2024-02-04T06:20:18;101172.38;;;10.90;100.00
4346;BME280;2186;49.866;7.986;2024-02-04T06:22:44;101170.44;;;11.00;100.00
4346;BME280;2186;49.866;7.986;2024-02-04T06:25:11;101161.63;;;10.97;100.00
4346;BME280;2186;49.866;7.986;2024-02-04T06:27:37;101160.75;;;10.94;100.00
4346;BME280;2186;49.866;7.986;2024-02-04T06:30:04;101160.06;;;10.83;100.00
4346;BME280;2186;49.866;7.986;2024-02-04T06:32:35;101158.25;;;10.85;100.00
4346;BME280;2186;49.866;7.986;2024-02-04T06:35:02;101148.34;;;10.94;100.00
4346;BME280;2186;49.866;7.986;2024-02-04T06:37:29;101158.28;;;10.82;100.00
4346;BME280;2186;49.866;7.986;2024-02-04T06:39:55;101152.97;;;10.82;100.00
4346;BME280;2186;49.866;7.986;2024-02-04T06:42:22;101149.22;;;10.96;100.00
4346;BME280;2186;49.866;7.986;2024-02-04T06:44:48;101150.25;;;10.86;100.00
4346;BME280;2186;49.866;7.986;2024-02-04T06:47:14;101156.47;;;10.85;100.00
4346;BME280;2186;49.866;7.986;2024-02-04T06:49:44;101163.59;;;10.82;100.00
4346;BME280;2186;49.866;7.986;2024-02-04T06:52:13;101161.78;;;10.87;100.00
4346;BME280;2186;49.866;7.986;2024-02-04T06:54:39;101154.84;;;10.77;100.00
4346;BME280;2186;49.866;7.986;2024-02-04T06:57:06;101154.75;;;10.81;100.00
4346;BME280;2186;49.866;7.986;2024-02-04T06:59:32;101167.16;;;10.84;100.00
4346;BME280;2186;49.866;7.986;2024-02-04T07:01:59;101157.19;;;10.96;100.00
4346;BME280;2186;49.866;7.986;2024-02-04T07:04:25;101166.03;;;10.98;100.00
4346;BME280;2186;49.866;7.986;2024-02-04T07:06:52;101162.81;;;10.77;100.00
4346;BME280;2186;49.866;7.986;2024-02-04T07:09:19;101168.16;;;10.75;100.00
4346;BME280;2186;49.866;7.986;2024-02-04T07:11:46;101176.03;;;10.83;100.00
4346;BME280;2186;49.866;7.986;2024-02-04T07:14:12;101165.31;;;10.87;100.00
4346;BME280;2186;49.866;7.986;2024-02-04T07:16:39;101161.81;;;10.82;100.00
4346;BME280;2186;49.866;7.986;2024-02-04T07:19:06;101168.06;;;10.83;100.00
4346;BME280;2186;49.866;7.986;2024-02-04T07:21:32;101160.06;;;10.84;100.00
4346;BME280;2186;49.866;7.986;2024-02-04T07:23:59;101162.72;;;10.84;100.00
4346;BME280;2186;49.866;7.986;2024-02-04T07:26:25;101162.63;;;10.89;100.00
4346;BME280;2186;49.866;7.986;2024-02-04T07:28:51;101165.41;;;10.83;100.00
4346;BME280;2186;49.866;7.986;2024-02-04T07:31:18;101153.78;;;10.88;100.00
4346;BME280;2186;49.866;7.986;2024-02-04T07:33:45;101164.28;;;10.94;100.00
4346;BME280;2186;49.866;7.986;2024-02-04T07:36:11;101164.28;;;10.94;100.00
4346;BME280;2186;49.866;7.986;2024-02-04T07:38:38;101161.84;;;10.84;100.00
4346;BME280;2186;49.866;7.986;2024-02-04T07:41:04;101168.75;;;10.94;100.00
4346;BME280;2186;49.866;7.986;2024-02-04T07:43:31;101167.88;;;10.93;100.00
4346;BME280;2186;49.866;7.986;2024-02-04T07:45:57;101183.13;;;10.81;100.00
4346;BME280;2186;49.866;7.986;2024-02-04T07:48:27;101167.91;;;10.90;100.00
4346;BME280;2186;49.866;7.986;2024-02-04T07:50:54;101166.88;;;11.01;100.00
4346;BME280;2186;49.866;7.986;2024-02-04T07:53:20;101171.59;;;10.83;100.00
4346;BME280;2186;49.866;7.986;2024-02-04T07:55:48;101182.97;;;10.91;100.00
4346;BME280;2186;49.866;7.986;2024-02-04T07:58:16;101183.06;;;10.87;100.00
4346;BME280;2186;49.866;7.986;2024-02-04T08:00:42;101182.16;;;10.88;100.00
4346;BME280;2186;49.866;7.986;2024-02-04T08:03:09;101189.16;;;10.92;100.00
4346;BME280;2186;49.866;7.986;2024-02-04T08:05:35;101185.78;;;10.81;100.00
4346;BME280;2186;49.866;7.986;2024-02-04T08:08:02;101176.03;;;10.81;100.00
4346;BME280;2186;49.866;7.986;2024-02-04T08:10:29;101175.97;;;10.86;100.00
4346;BME280;2186;49.866;7.986;2024-02-04T08:12:55;101178.81;;;10.74;100.00
4346;BME280;2186;49.866;7.986;2024-02-04T08:15:23;101174.16;;;10.88;100.00
4346;BME280;2186;49.866;7.986;2024-02-04T08:17:50;101167.25;;;10.76;100.00
4346;BME280;2186;49.866;7.986;2024-02-04T08:20:18;101177.91;;;10.76;100.00
4346;BME280;2186;49.866;7.986;2024-02-04T08:22:44;101176.09;;;10.78;100.00
4346;BME280;2186;49.866;7.986;2024-02-04T08:25:10;101166.22;;;10.86;100.00
4346;BME280;2186;49.866;7.986;2024-02-04T08:27:38;101164.41;;;10.88;100.00
4346;BME280;2186;49.866;7.986;2024-02-04T08:30:06;101158.06;;;10.97;100.00
4346;BME280;2186;49.866;7.986;2024-02-04T08:32:32;101160.75;;;10.94;100.00
4346;BME280;2186;49.866;7.986;2024-02-04T08:34:59;101172.03;;;11.10;100.00
4346;BME280;2186;49.866;7.986;2024-02-04T08:37:26;101182.66;;;11.10;100.00
4346;BME280;2186;49.866;7.986;2024-02-04T08:39:54;101188.78;;;11.16;100.00
4346;BME280;2186;49.866;7.986;2024-02-04T08:42:21;101187.13;;;11.11;100.00
4346;BME280;2186;49.866;7.986;2024-02-04T08:44:48;101173.78;;;11.12;100.00
4346;BME280;2186;49.866;7.986;2024-02-04T08:47:14;101179.75;;;11.26;100.00
4346;BME280;2186;49.866;7.986;2024-02-04T08:49:43;101183.41;;;11.19;100.00
4346;BME280;2186;49.866;7.986;2024-02-04T08:52:10;101182.56;;;11.17;100.00
4346;BME280;2186;49.866;7.986;2024-02-04T08:54:36;101191.28;;;11.27;100.00
4346;BME280;2186;49.866;7.986;2024-02-04T08:57:03;101189.47;;;11.29;100.00
4346;BME280;2186;49.866;7.986;2024-02-04T08:59:30;101177.81;;;11.35;100.00
4346;BME280;2186;49.866;7.986;2024-02-04T09:01:56;101172.31;;;11.45;100.00
4346;BME280;2186;49.866;7.986;2024-02-04T09:04:23;101168.91;;;11.37;100.00
4346;BME280;2186;49.866;7.986;2024-02-04T09:06:50;101160.19;;;11.29;100.00
4346;BME280;2186;49.866;7.986;2024-02-04T09:09:16;101156.78;;;11.19;100.00
4346;BME280;2186;49.866;7.986;2024-02-04T09:11:43;101155.78;;;11.28;100.00
4346;BME280;2186;49.866;7.986;2024-02-04T09:14:09;101155.81;;;11.25;100.00
4346;BME280;2186;49.866;7.986;2024-02-04T09:16:39;101159.47;;;11.18;100.00
4346;BME280;2186;49.866;7.986;2024-02-04T09:19:05;101161.91;;;11.32;100.00
4346;BME280;2186;49.866;7.986;2024-02-04T09:21:32;101167.31;;;11.27;100.00
4346;BME280;2186;49.866;7.986;2024-02-04T09:23:59;101162.72;;;11.35;100.00
4346;BME280;2186;49.866;7.986;2024-02-04T09:26:25;101160.97;;;11.34;99.86
4346;BME280;2186;49.866;7.986;2024-02-04T09:28:52;101159.97;;;11.41;100.00
4346;BME280;2186;49.866;7.986;2024-02-04T09:31:18;101148.59;;;11.32;100.00
4346;BME280;2186;49.866;7.986;2024-02-04T09:33:45;101152.00;;;11.40;100.00
4346;BME280;2186;49.866;7.986;2024-02-04T09:36:12;101162.00;;;11.27;100.00
4346;BME280;2186;49.866;7.986;2024-02-04T09:38:38;101161.91;;;11.32;100.00
4346;BME280;2186;49.866;7.986;2024-02-04T09:41:05;101165.56;;;11.26;100.00
4346;BME280;2186;49.866;7.986;2024-02-04T09:43:32;101166.34;;;11.31;100.00
4346;BME280;2186;49.866;7.986;2024-02-04T09:46:04;101155.59;;;11.37;100.00
4346;BME280;2186;49.866;7.986;2024-02-04T09:48:32;101149.59;;;11.26;100.00
4346;BME280;2186;49.866;7.986;2024-02-04T09:50:59;101151.88;;;11.46;100.00
4346;BME280;2186;49.866;7.986;2024-02-04T09:53:33;101144.09;;;11.35;100.00
4346;BME280;2186;49.866;7.986;2024-02-04T09:56:03;101147.78;;;11.28;100.00
4346;BME280;2186;49.866;7.986;2024-02-04T09:58:32;101153.91;;;11.33;100.00
4346;BME280;2186;49.866;7.986;2024-02-04T10:01:03;101144.19;;;11.31;100.00
4346;BME280;2186;49.866;7.986;2024-02-04T10:03:30;101145.09;;;11.30;100.00
4346;BME280;2186;49.866;7.986;2024-02-04T10:05:57;101153.56;;;11.50;100.00
4346;BME280;2186;49.866;7.986;2024-02-04T10:08:24;101154.72;;;11.38;100.00
4346;BME280;2186;49.866;7.986;2024-02-04T10:10:51;101148.50;;;11.36;100.00
4346;BME280;2186;49.866;7.986;2024-02-04T10:13:18;101161.63;;;11.47;100.00
4346;BME280;2186;49.866;7.986;2024-02-04T10:15:45;101179.50;;;11.40;100.00
4346;BME280;2186;49.866;7.986;2024-02-04T10:18:11;101177.66;;;11.44;100.00
4346;BME280;2186;49.866;7.986;2024-02-04T10:20:38;101164.28;;;11.47;100.00
4346;BME280;2186;49.866;7.986;2024-02-04T10:23:04;101162.69;;;11.38;100.00
4346;BME280;2186;49.866;7.986;2024-02-04T10:25:31;101175.03;;;11.42;100.00
4346;BME280;2186;49.866;7.986;2024-02-04T10:27:58;101182.09;;;11.45;100.00
4346;BME280;2186;49.866;7.986;2024-02-04T10:30:25;101183.94;;;11.41;100.00
4346;BME280;2186;49.866;7.986;2024-02-04T10:32:53;101186.44;;;11.49;100.00
4346;BME280;2186;49.866;7.986;2024-02-04T10:35:23;101181.09;;;11.50;100.00
4346;BME280;2186;49.866;7.986;2024-02-04T10:37:51;101183.94;;;11.41;100.00
4346;BME280;2186;49.866;7.986;2024-02-04T10:40:18;101174.94;;;11.47;100.00
4346;BME280;2186;49.866;7.986;2024-02-04T10:42:45;101166.38;;;11.30;100.00
4346;BME280;2186;49.866;7.986;2024-02-04T10:45:12;101167.38;;;11.24;100.00
4346;BME280;2186;49.866;7.986;2024-02-04T10:47:43;101155.59;;;11.39;100.00
4346;BME280;2186;49.866;7.986;2024-02-04T10:50:12;101154.59;;;11.44;100.00
4346;BME280;2186;49.866;7.986;2024-02-04T10:52:39;101157.13;;;11.50;100.00
4346;BME280;2186;49.866;7.986;2024-02-04T10:55:08;101154.69;;;11.40;100.00
4346;BME280;2186;49.866;7.986;2024-02-04T10:57:37;101153.59;;;11.48;100.00
4346;BME280;2186;49.866;7.986;2024-02-04T11:00:05;101150.22;;;11.40;100.00
4346;BME280;2186;49.866;7.986;2024-02-04T11:02:36;101142.94;;;11.50;100.00
4346;BME280;2186;49.866;7.986;2024-02-04T11:05:05;101142.75;;;11.59;100.00
4346;BME280;2186;49.866;7.986;2024-02-04T11:07:32;101139.34;;;11.52;100.00
4346;BME280;2186;49.866;7.986;2024-02-04T11:10:00;101121.56;;;11.54;100.00
4346;BME280;2186;49.866;7.986;2024-02-04T11:12:29;101133.19;;;11.49;100.00
4346;BME280;2186;49.866;7.986;2024-02-04T11:15:00;101128.72;;;11.52;100.00
4346;BME280;2186;49.866;7.986;2024-02-04T11:18:05;101118.09;;;11.49;100.00
4346;BME280;2186;49.866;7.986;2024-02-04T11:20:52;101101.78;;;11.68;100.00
4346;BME280;2186;49.866;7.986;2024-02-04T11:23:41;101093.44;;;11.86;100.00
4346;BME280;2186;49.866;7.986;2024-02-04T11:26:13;101091.78;;;11.77;100.00
4346;BME280;2186;49.866;7.986;2024-02-04T11:28:40;101093.53;;;11.78;100.00
4346;BME280;2186;49.866;7.986;2024-02-04T11:31:14;101089.16;;;11.79;100.00
4346;BME280;2186;49.866;7.986;2024-02-04T11:33:42;101085.28;;;11.94;99.88
4346;BME280;2186;49.866;7.986;2024-02-04T11:36:13;101093.53;;;11.81;99.66
4346;BME280;2186;49.866;7.986;2024-02-04T11:38:41;101094.84;;;12.02;99.55
4346;BME280;2186;49.866;7.986;2024-02-04T11:41:08;101082.41;;;12.03;99.76
4346;BME280;2186;49.866;7.986;2024-02-04T11:43:36;101073.31;;;12.13;99.04
4346;BME280;2186;49.866;7.986;2024-02-04T11:46:04;101083.03;;;12.15;97.98
4346;BME280;2186;49.866;7.986;2024-02-04T11:48:35;101082.19;;;12.13;98.20
4346;BME280;2186;49.866;7.986;2024-02-04T11:51:04;101087.97;;;11.94;98.53
4346;BME280;2186;49.866;7.986;2024-02-04T11:53:31;101076.34;;;11.96;98.63
4346;BME280;2186;49.866;7.986;2024-02-04T11:56:02;101074.41;;;12.03;98.13
4346;BME280;2186;49.866;7.986;2024-02-04T11:58:30;101079.50;;;12.13;98.22
4346;BME280;2186;49.866;7.986;2024-02-04T12:00:58;101081.41;;;12.08;97.91
4346;BME280;2186;49.866;7.986;2024-02-04T12:03:33;101080.44;;;12.12;97.94
4346;BME280;2186;49.866;7.986;2024-02-04T12:06:01;101082.47;;;12.00;98.16
4346;BME280;2186;49.866;7.986;2024-02-04T12:08:30;101066.25;;;12.10;98.24
4346;BME280;2186;49.866;7.986;2024-02-04T12:10:59;101072.19;;;12.23;97.48
4346;BME280;2186;49.866;7.986;2024-02-04T12:13:27;101077.97;;;12.03;97.42
4346;BME280;2186;49.866;7.986;2024-02-04T12:15:54;101075.81;;;12.21;97.41
4346;BME280;2186;49.866;7.986;2024-02-04T12:18:20;101073.31;;;12.13;97.50
4346;BME280;2186;49.866;7.986;2024-02-04T12:20:48;101074.97;;;12.17;97.62
4346;BME280;2186;49.866;7.986;2024-02-04T12:23:18;101075.69;;;12.25;97.62
4346;BME280;2186;49.866;7.986;2024-02-04T12:25:45;101074.03;;;12.20;97.19
4346;BME280;2186;49.866;7.986;2024-02-04T12:28:13;101066.34;;;12.06;97.34
4346;BME280;2186;49.866;7.986;2024-02-04T12:30:40;101060.19;;;12.04;97.40
4346;BME280;2186;49.866;7.986;2024-02-04T12:33:07;101052.00;;;12.13;97.47
4346;BME280;2186;49.866;7.986;2024-02-04T12:35:35;101063.72;;;12.04;97.10
4346;BME280;2186;49.866;7.986;2024-02-04T12:38:02;101063.75;;;12.03;97.08
4346;BME280;2186;49.866;7.986;2024-02-04T12:40:30;101054.88;;;12.02;97.09
4346;BME280;2186;49.866;7.986;2024-02-04T12:42:57;101050.63;;;11.95;97.47
4346;BME280;2186;49.866;7.986;2024-02-04T12:45:31;101041.63;;;11.99;97.53
4346;BME280;2186;49.866;7.986;2024-02-04T12:47:58;101036.28;;;12.01;97.18
4346;BME280;2186;49.866;7.986;2024-02-04T12:50:25;101030.78;;;12.08;97.02
4346;BME280;2186;49.866;7.986;2024-02-04T12:53:21;101029.00;;;12.09;97.06
4346;BME280;2186;49.866;7.986;2024-02-04T12:55:47;101027.28;;;12.06;96.85
4346;BME280;2186;49.866;7.986;2024-02-04T12:58:14;101020.16;;;12.05;97.16
4346;BME280;2186;49.866;7.986;2024-02-04T13:00:44;101014.50;;;12.21;97.38
4346;BME280;2186;49.866;7.986;2024-02-04T13:03:15;101008.03;;;12.31;97.10
4346;BME280;2186;49.866;7.986;2024-02-04T13:05:42;101011.50;;;12.34;96.70
4346;BME280;2186;49.866;7.986;2024-02-04T13:08:08;101000.91;;;12.31;96.35
4346;BME280;2186;49.866;7.986;2024-02-04T13:10:36;100994.53;;;12.38;96.08